createdAt,value
2022-11-09T00:04:44.233Z,8.05
2022-11-09T00:09:47.691Z,7.92
2022-11-09T00:14:51.040Z,7.84
2022-11-09T00:19:55.905Z,7.84
2022-11-09T00:24:59.277Z,7.93
2022-11-09T00:30:02.631Z,8.03
2022-11-09T00:35:09.763Z,8.04
2022-11-09T00:40:14.112Z,8.06
2022-11-09T00:45:17.695Z,8.13
2022-11-09T00:50:22.499Z,8.13
2022-11-09T00:55:25.911Z,8.34
2022-11-09T01:00:29.335Z,8.39
2022-11-09T01:05:34.059Z,8.55
2022-11-09T01:10:37.514Z,8.67
2022-11-09T01:15:45.310Z,8.77
2022-11-09T01:20:51.764Z,8.86
2022-11-09T01:25:59.534Z,8.95
2022-11-09T01:31:04.938Z,9.00
2022-11-09T01:36:12.601Z,9.08
2022-11-09T01:41:17.864Z,9.10
2022-11-09T01:46:27.026Z,9.17
2022-11-09T01:51:36.670Z,9.41
2022-11-09T01:56:41.364Z,9.50
2022-11-09T02:01:46.889Z,9.61
2022-11-09T02:06:52.537Z,9.78
2022-11-09T02:11:56.650Z,9.78
2022-11-09T02:17:00.693Z,9.82
2022-11-09T02:22:05.586Z,9.87
2022-11-09T02:27:09.099Z,9.92
2022-11-09T02:32:18.423Z,9.95
2022-11-09T02:37:32.051Z,10.00
2022-11-09T02:42:35.590Z,10.03
2022-11-09T02:47:39.311Z,10.10
2022-11-09T02:52:44.217Z,10.10
2022-11-09T02:57:48.109Z,10.11
2022-11-09T03:02:52.613Z,10.08
2022-11-09T03:07:57.948Z,10.10
2022-11-09T03:13:01.424Z,10.08
2022-11-09T03:18:05.226Z,10.06
2022-11-09T03:23:11.070Z,10.04
2022-11-09T03:28:15.910Z,9.96
2022-11-09T03:33:20.780Z,9.98
2022-11-09T03:38:26.027Z,10.01
2022-11-09T03:43:30.152Z,10.01
2022-11-09T03:48:33.786Z,9.99
2022-11-09T03:53:38.597Z,9.88
2022-11-09T03:58:41.959Z,9.84
2022-11-09T04:03:45.376Z,9.73
2022-11-09T04:08:51.636Z,9.72
2022-11-09T04:13:55.844Z,9.68
2022-11-09T04:18:59.233Z,9.59
2022-11-09T04:24:04.052Z,9.49
2022-11-09T04:29:07.456Z,9.43
2022-11-09T04:34:10.827Z,9.37
2022-11-09T04:39:15.836Z,9.24
2022-11-09T04:44:19.461Z,9.15
2022-11-09T04:49:23.050Z,9.12
2022-11-09T04:54:27.825Z,8.99
2022-11-09T04:59:31.196Z,8.86
2022-11-09T05:04:34.586Z,8.66
2022-11-09T05:09:39.579Z,8.69
2022-11-09T05:14:42.897Z,8.60
2022-11-09T05:19:46.292Z,8.52
2022-11-09T05:24:51.966Z,8.54
2022-11-09T05:29:55.410Z,8.78
2022-11-09T05:34:58.774Z,8.93
2022-11-09T05:40:03.584Z,9.07
2022-11-09T05:45:40.285Z,9.23
2022-11-09T05:50:31.153Z,9.28
2022-11-09T05:55:47.643Z,9.21
2022-11-09T06:00:51.043Z,9.45
2022-11-09T06:05:54.449Z,9.67
2022-11-09T06:11:04.542Z,9.71
2022-11-09T06:16:08.334Z,9.79
2022-11-09T06:21:12.214Z,9.87
2022-11-09T06:26:17.015Z,9.96
2022-11-09T06:31:21.053Z,10.03
2022-11-09T06:36:25.002Z,10.43
2022-11-09T06:41:29.774Z,10.97
2022-11-09T06:46:33.380Z,11.39
2022-11-09T06:51:37.028Z,11.87
2022-11-09T06:56:41.769Z,12.21
2022-11-09T07:01:45.239Z,12.57
2022-11-09T07:06:48.711Z,12.95
2022-11-09T07:11:53.444Z,13.26
2022-11-09T07:16:56.848Z,13.48
2022-11-09T07:22:00.188Z,13.63
2022-11-09T07:27:05.182Z,13.80
2022-11-09T07:32:08.537Z,13.92
2022-11-09T07:37:11.866Z,14.21
2022-11-09T07:42:16.652Z,14.26
2022-11-09T07:47:20.978Z,14.63
2022-11-09T07:52:24.378Z,14.80
2022-11-09T07:57:29.162Z,14.87
2022-11-09T08:02:32.542Z,14.97
2022-11-09T08:07:36.040Z,15.15
2022-11-09T08:12:40.943Z,15.76
2022-11-09T08:17:44.307Z,15.89
2022-11-09T08:22:48.624Z,15.96
2022-11-09T08:27:53.394Z,16.29
2022-11-09T08:32:57.119Z,16.60
2022-11-09T08:38:03.803Z,16.48
2022-11-09T08:43:10.042Z,16.81
2022-11-09T08:48:14.049Z,17.09
2022-11-09T08:53:17.422Z,17.40
2022-11-09T08:58:23.121Z,17.65
2022-11-09T09:03:26.619Z,18.06
2022-11-09T09:08:29.974Z,18.10
2022-11-09T09:13:40.394Z,18.39
2022-11-09T09:18:48.982Z,18.48
2022-11-09T09:23:53.866Z,18.40
2022-11-09T09:28:58.819Z,18.41
2022-11-09T09:34:02.238Z,18.40
2022-11-09T09:39:05.990Z,17.01
2022-11-09T09:44:24.242Z,16.96
2022-11-09T09:49:30.388Z,16.47
2022-11-09T09:54:41.006Z,16.38
2022-11-09T09:59:50.483Z,16.42
2022-11-09T10:04:56.452Z,16.17
2022-11-09T10:10:23.939Z,16.25
2022-11-09T10:15:34.887Z,16.58
2022-11-09T10:21:01.984Z,17.02
2022-11-09T10:26:10.008Z,17.11
2022-11-09T10:31:20.550Z,17.05
2022-11-09T10:36:29.446Z,16.86
2022-11-09T10:41:38.837Z,16.51
2022-11-09T10:47:08.184Z,16.36
2022-11-09T10:52:47.028Z,16.37
2022-11-09T10:58:24.022Z,16.42
2022-11-09T11:03:50.514Z,16.77
2022-11-09T11:09:17.679Z,16.55
2022-11-09T11:14:45.392Z,16.39
2022-11-09T11:20:29.291Z,16.13
2022-11-09T11:26:25.282Z,16.15
2022-11-09T11:31:47.146Z,16.14
2022-11-09T11:37:23.506Z,16.18
2022-11-09T11:43:06.768Z,16.51
2022-11-09T11:48:55.292Z,17.26
2022-11-09T11:54:28.127Z,17.18
2022-11-09T12:00:04.156Z,18.09
2022-11-09T12:05:45.515Z,18.57
2022-11-09T12:11:17.736Z,18.51
2022-11-09T12:16:47.320Z,18.60
2022-11-09T12:22:18.187Z,18.41
2022-11-09T12:27:55.362Z,18.25
2022-11-09T12:33:27.037Z,18.15
2022-11-09T12:39:02.763Z,17.69
2022-11-09T12:44:30.478Z,17.49
2022-11-09T12:49:54.997Z,16.88
2022-11-09T12:55:18.525Z,16.83
2022-11-09T13:01:00.266Z,16.60
2022-11-09T13:06:25.339Z,16.54
2022-11-09T13:11:49.824Z,16.25
2022-11-09T13:17:49.784Z,16.22
2022-11-09T13:29:27.228Z,15.90
2022-11-09T13:34:50.884Z,15.70
2022-11-09T13:40:41.897Z,15.74
2022-11-09T13:46:05.939Z,15.51
2022-11-09T13:51:43.637Z,15.27
2022-11-09T13:57:08.759Z,15.07
2022-11-09T14:02:30.684Z,14.92
2022-11-09T14:07:56.286Z,14.76
2022-11-09T14:13:35.318Z,14.63
2022-11-09T14:19:14.866Z,14.51
2022-11-09T14:24:39.332Z,14.25
2022-11-09T14:30:03.188Z,14.11
2022-11-09T14:35:28.840Z,13.90
2022-11-09T14:40:53.217Z,13.80
2022-11-09T14:46:20.335Z,13.61
2022-11-09T14:51:42.508Z,13.50
2022-11-09T14:57:04.727Z,13.31
2022-11-09T15:02:28.204Z,13.07
2022-11-09T15:07:50.525Z,12.85
2022-11-09T15:13:12.345Z,12.75
2022-11-09T15:18:43.248Z,12.73
2022-11-09T15:24:14.537Z,12.54
2022-11-09T15:29:40.239Z,12.38
2022-11-09T15:35:03.896Z,12.33
2022-11-09T15:40:26.491Z,12.19
2022-11-09T15:45:48.443Z,12.17
2022-11-09T15:51:11.864Z,11.94
2022-11-09T15:56:34.067Z,11.75
2022-11-09T16:01:56.059Z,11.67
2022-11-09T16:07:19.668Z,11.60
2022-11-09T16:12:46.159Z,11.65
2022-11-09T16:18:08.530Z,11.56
2022-11-09T16:23:32.275Z,11.49
2022-11-09T16:28:56.385Z,11.32
2022-11-09T16:34:18.160Z,11.35
2022-11-09T16:39:41.560Z,11.31
2022-11-09T16:45:09.563Z,11.30
2022-11-09T16:50:31.760Z,11.14
2022-11-09T16:55:55.126Z,10.96
2022-11-09T17:01:20.710Z,10.78
2022-11-09T17:06:45.318Z,10.75
2022-11-09T17:12:09.006Z,10.65
2022-11-09T17:17:31.123Z,10.65
2022-11-09T17:22:53.870Z,10.52
2022-11-09T17:28:17.172Z,10.47
2022-11-09T17:33:39.171Z,10.42
2022-11-09T17:39:01.623Z,10.28
2022-11-09T17:44:25.322Z,10.13
2022-11-09T17:49:47.485Z,10.13
2022-11-09T17:55:09.748Z,9.97
2022-11-09T18:00:35.399Z,10.02
2022-11-09T18:05:57.144Z,10.17
2022-11-09T18:11:19.719Z,10.07
2022-11-09T18:16:43.169Z,10.05
2022-11-09T18:22:09.896Z,10.01
2022-11-09T18:27:34.404Z,9.85
2022-11-09T18:32:57.857Z,9.65
2022-11-09T18:38:20.316Z,9.58
2022-11-09T18:43:42.599Z,9.57
2022-11-09T18:49:11.483Z,9.59
2022-11-09T18:54:36.512Z,9.64
2022-11-09T18:59:58.559Z,9.63
2022-11-09T19:05:21.739Z,9.66
2022-11-09T19:10:43.499Z,9.60
2022-11-09T19:16:05.748Z,9.55
2022-11-09T19:21:37.492Z,9.56
2022-11-09T19:26:59.649Z,9.60
2022-11-09T19:32:21.302Z,9.63
2022-11-09T19:37:44.535Z,9.60
2022-11-09T19:43:06.240Z,9.67
2022-11-09T19:48:28.613Z,9.62
2022-11-09T19:53:52.549Z,9.62
2022-11-09T19:59:16.002Z,9.61
2022-11-09T20:04:37.959Z,9.46
2022-11-09T20:10:01.797Z,9.52
2022-11-09T20:15:24.101Z,9.39
2022-11-09T20:20:46.318Z,9.49
2022-11-09T20:26:11.460Z,9.41
2022-11-09T20:31:33.268Z,9.30
2022-11-09T20:36:55.170Z,9.25
2022-11-09T20:42:18.352Z,9.25
2022-11-09T20:48:03.369Z,9.26
2022-11-09T20:53:22.532Z,9.24
2022-11-09T20:58:46.289Z,9.18
2022-11-09T21:04:08.404Z,9.20
2022-11-09T21:09:29.958Z,9.07
2022-11-09T21:14:54.164Z,9.01
2022-11-09T21:20:16.355Z,8.95
2022-11-09T21:25:56.011Z,8.84
2022-11-09T21:31:19.145Z,8.96
2022-11-09T21:36:43.616Z,8.95
2022-11-09T21:42:05.731Z,8.89
2022-11-09T21:47:28.812Z,8.94
2022-11-09T21:52:50.616Z,9.00
2022-11-09T21:58:12.589Z,9.08
2022-11-09T22:03:36.259Z,9.03
2022-11-09T22:08:58.513Z,8.91
2022-11-09T22:14:38.972Z,8.78
2022-11-09T22:20:19.862Z,8.53
2022-11-09T22:25:47.670Z,8.36
2022-11-09T22:31:10.937Z,8.23
2022-11-09T22:36:34.144Z,8.24
2022-11-09T22:41:56.456Z,8.20
2022-11-09T22:47:18.499Z,8.03
2022-11-09T22:52:41.651Z,7.88
2022-11-09T22:58:03.402Z,7.80
2022-11-09T23:03:25.070Z,7.79
2022-11-09T23:08:49.346Z,7.79
2022-11-09T23:14:12.402Z,7.97
2022-11-09T23:19:34.245Z,8.08
2022-11-09T23:25:15.447Z,8.12
2022-11-09T23:30:37.126Z,8.11
2022-11-09T23:36:00.893Z,8.19
2022-11-09T23:41:24.034Z,8.16
2022-11-09T23:46:46.670Z,8.11
2022-11-09T23:52:08.752Z,8.03
2022-11-09T23:57:32.451Z,8.05
